Immagine casuale
Testata Regione Lazio ARSIAL SIARL

Ultima Misura Rilevata

Temperatura, Umidità, Pioggia, Pressione Radiazione Solare, Venti, Evapotraspirazione, ecc.
Temperature diurne e notturne Direzione vento Legenda
Prov Stazione Data TMin TMed TMax UMed Pioggia PMed
FR ALATRI Basciano 21/06/2018 16,4 21,5 33,8 78 10,4 1.015
FR ALVITO Az. Ist. S. Benedetto 21/06/2018 13,3 19,7 29,2 84 10,8 1.018
FR ANAGNI La Gloria 21/06/2018 14,7 21 30,5 86 2,6 1.016
FR ARPINO Vigne Piane 21/06/2018 16,7 20,6 29,9 81 6,2 1.014
FR BOVILLE ERNICA Sasso 21/06/2018 15,9 22,8 32,8 72 0,2 1.017
FR ESPERIA Modale 21/06/2018 15,3 21,5 32,4 50 18 1.015
FR PASTENA Acero 21/06/2018 13,9 21,2 29,9 83 1,4 1.015
FR PIGLIO Civitella 21/06/2018 14,3 20,2 30,2 88 23,6 1.027
FR PONTECORVO Melfi di Sotto 21/06/2018 15,8 22,1 31,6 85 25,2 ----
FR S. ELIA FIUMERAPIDO Portella 21/06/2018 15,8 22,1 30,8 79 0 1.016
FR S. GIORGIO A LIRI Porto 21/06/2018 16,4 22,7 31,7 82 0,2 1.017
FR SGURGOLA Campo Lungo 21/06/2018 15,2 22 30,2 82 0,2 ----
FR VALLECORSA Serbatoio comunale 21/06/2018 16,2 20,8 26,9 82 0,2 1.019
LT APRILIA Le Ferriere 21/06/2018 17,3 23,1 29 80 0,2 1.016
LT CISTERNA B.go Carso 21/06/2018 15,6 22 27,7 87 0 ----
LT CISTERNA Doganella di Ninfa 21/06/2018 16,4 22,8 31,2 77 0,2 1.017
LT CORI Portone 21/06/2018 16,5 22,2 30,5 80 3,2 1.017
LT FONDI Capratica 21/06/2018 17,6 23,1 28,1 86 0 1.016
LT FORMIA Loc. Gianola 21/06/2018 16,8 22,6 27,8 85 0,2 ----
LT ITRI Valle Quercia 21/06/2018 17,6 22,2 27,5 82 0 1.016
LT MAENZA Casacotta 21/06/2018 16,9 22,8 30,2 81 0,2 1.014
LT MINTURNO Pulcherini 21/06/2018 18,2 22,8 28 88 0,2 1.016
LT PONTINIA Cotarda 21/06/2018 17 23,6 31,2 82 0 1.018
LT SABAUDIA Acquaviva 21/06/2018 17,5 22,6 27,7 83 0 1.016
LT SONNINO Frasso 21/06/2018 18,6 23,7 30,3 76 0 1.016
RI ACCUMOLI Terracino 21/06/2018 13 17,8 23,7 82 2,1 1.016
RI BORGOVELINO Ponte Basso 21/06/2018 12,7 20,6 31,5 77 0 1.021
RI CANTALUPO S. Francesco 21/06/2018 14,8 21,3 30,2 84 10,6 ----
RI CASTEL DI TORA Monte di Tora 21/06/2018 N.D. N.D. N.D. N.D. N.D. N.D.
RI CASTELNUOVO FARFA C. Spadone 21/06/2018 17,5 22,5 31,6 81 6,4 ----
RI CONFIGNI Portella 21/06/2018 16,4 22,4 29,6 75 0 1.016
RI FARA SABINA Canneto 21/06/2018 18,2 23,3 31,4 72 0 1.022
RI FARA SABINA Sant'Andrea 21/06/2018 17,3 23,4 31,3 73 0 ----
RI MONTELEONE S. Prato Camino 21/06/2018 14,9 21,3 30,6 79 0,2 1.016
RI MONTOPOLI IN SABINA Colle Arcone 21/06/2018 17,4 22,5 30,5 86 0,6 ----
RI MONTOPOLI IN SABINA Villa Caprola 21/06/2018 17,7 24,3 32,9 85 0 ----
RI POGGIO CATINO Pastine 21/06/2018 16,7 21,9 29,7 89 13,5 ----
RI POGGIO NATIVO Casali 21/06/2018 17,3 21,7 28,2 83 0 ----
RI RIETI Piana di Rieti 21/06/2018 13,8 20,7 28,6 76 1,1 1.018
RI SCANDRIGLIA Ponticelli 21/06/2018 16,6 21,4 28,3 87 0,6 ----
RM AGOSTA La Cisterna 21/06/2018 13,7 19,3 28,6 87 0,8 1.021
RM BRACCIANO Prato Pianciano 21/06/2018 17,1 23 32,2 75 0 1.013
RM CANALE MONTERANO Monte Virginio 21/06/2018 14,3 20,1 31,2 84 1,6 1.015
RM CERVETERI Campo di Mare 21/06/2018 19,1 23,1 26,8 74 0 ----
RM CIVITELLA S.PAOLO Le Cese 21/06/2018 17,5 22,7 31,7 73 0 1.020
RM FIUMICINO Maccarese 21/06/2018 17,3 23,7 28,3 79 0 1.016
RM FIUMICINO Testa di Lepre 21/06/2018 18,5 24,1 30,4 76 0 ----
RM FORMELLO Perazzeta 21/06/2018 17,5 23,4 29,8 70 0 ----
RM FRASCATI Prata Porci 21/06/2018 15,9 23,3 31,5 73 0 1.016
RM GENAZZANO Coop. La Sonnina 21/06/2018 15,2 21,1 28,9 84 5,6 1.016
RM GROTTAFERRATA Valle Marciana 21/06/2018 17 22,9 30,2 68 0 1.016
RM LICENZA Colle Franco 21/06/2018 13,8 20,2 29,7 77 0,2 1.018
RM MARCELLINA V. Campetella 21/06/2018 16,7 23 30,1 79 0 ----
RM MARINO Gotto d'Oro 21/06/2018 17,1 24,3 30,9 72 0 1.015
RM MONTECOMPATRI Colle Mattia 21/06/2018 16,1 22,9 30,9 71 0 1.016
RM MONTECOMPATRI Pantano Borghese 21/06/2018 16,3 23,7 32,4 77 0 1.019
RM MONTELIBRETTI Bruciati 21/06/2018 16 23,2 31,5 77 0 ----
RM MONTEPORZIO Camaldoli 21/06/2018 15 20 27,1 78 0 1.017
RM MONTEROTONDO Grotta Marozza 21/06/2018 16,9 23,9 32,4 69 0 1.017
RM PALOMBARA Fonte Grande 21/06/2018 14,1 21,7 31 73 0,6 ----
RM ROMA Capocotta 21/06/2018 16,8 22,2 27 83 0 ----
RM ROMA Ponte di Nona 21/06/2018 18 24,5 30,9 76 0 1.016
RM ROMA Via Lanciani 38 21/06/2018 20,7 25,2 29,9 68 0 1.017
RM S. GREGORIO C. Faustiniano 21/06/2018 16,3 21,9 31,1 74 1 1.015
RM VELLETRI Cantina Sperimentale 21/06/2018 15,4 22,3 31,4 74 0 1.015
RM VELLETRI Prato Lungo 21/06/2018 18,6 24 29,6 72 0 ----
RM ZAGAROLO Santa Apollara 21/06/2018 17,2 22,5 29,2 76 0 ----
VT ACQUAPENDENTE Falconiera 21/06/2018 15,3 20,4 28,2 86 7 1.020
VT BAGNOREGIO Castell Cellesi 21/06/2018 15,9 20,5 27 73 0,2 ----
VT BASSANO R. Piano Mola 21/06/2018 16,2 21,4 30 76 0,8 1.014
VT BLERA Puntoni 21/06/2018 17,1 22,4 29 76 0 1.016
VT BOLSENA Capone 21/06/2018 17,3 22,1 30,6 80 0 1.020
VT BOLSENA Rentica 21/06/2018 N.D. N.D. N.D. N.D. N.D. ----
VT CANINO Diga Timone 21/06/2018 18,1 22,8 30 80 0 1.015
VT CANINO Pianacce 21/06/2018 18,4 23 28,6 78 0 1.016
VT CANINO San Valeriano 21/06/2018 18,6 22,4 27,8 80 0 ----
VT CELLENO Acquaforte 21/06/2018 15 20,9 28 87 0 ----
VT CORCHIANO Pantalone 21/06/2018 15 22,2 31,9 81 20,6 1.016
VT FARNESE Gressa 21/06/2018 17,2 21 26 78 0 ----
VT FARNESE Pian di Sala 21/06/2018 14,8 20,5 27,3 89 0,5 ----
VT GROTTE DI CASTRO Borghetto 21/06/2018 16,4 21,1 28,4 88 1,2 1.023
VT GROTTE DI CASTRO Purgatorio 21/06/2018 15,4 20,5 28,8 90 27,6 1.020
VT LATERA Centro Florovivaistico 21/06/2018 14,8 21 30,2 79 3 1.013
VT MONTALTO Le Murelle 21/06/2018 19,2 22,8 27,1 87 0 1.017
VT MONTALTO Pescia Romana 21/06/2018 19,4 23,1 27,4 85 0,2 1.016
VT MONTEFIASCONE Commenda 21/06/2018 16,9 21,6 29,5 84 1,7 ----
VT RONCIGLIONE Ponterotto 21/06/2018 15,8 21,8 28,8 71 0 ----
VT SORIANO CIMINO Pantane 21/06/2018 13,8 21,4 31,7 78 0 1.015
VT SORIANO CIMINO Poggio di Chia 21/06/2018 14,9 21 28,3 86 1,2 ----
VT TARQUINIA Portaccia 21/06/2018 19,5 23,2 27,1 85 0,1 ----
VT TUSCANIA Montebello 21/06/2018 18,8 22,2 27,4 79 0,6 ----
VT VETRALLA Marchionato 21/06/2018 17,1 21,7 27,8 88 0,8 ----
VT VITERBO Pisello 21/06/2018 16,9 21,8 28,1 82 0 ----
N.D. = Dati Non Disponibili
---- = Sensore non presente

Le misure esposte sono grezze, ovvero non sono state validate